Time;durP1;ratioP1;P1;durP2;ratioP2;P2;SDS_P1;SDS_P2;PMS_P1;PMS_P2;Temp;Humidity;BMP_temperature;BMP_pressure;BME280_temperature;BME280_humidity;BME280_pressure;Samples;Min_cycle;Max_cycle;Signal;HPM_P1;HPM_P2
2024/01/30 00:07:26;;;;;;;22.35;14.27;;;11.40;70.20;;;;;;20912856;28;20498;-57
2024/01/30 00:17:27;;;;;;;20.75;15.18;;;11.30;70.50;;;;;;20912308;28;20037;-56
2024/01/30 00:27:28;;;;;;;21.52;14.70;;;11.40;70.40;;;;;;20911852;28;20049;-55
2024/01/30 00:37:29;;;;;;;24.08;15.25;;;11.40;70.30;;;;;;20910077;28;20055;-57
2024/01/30 00:47:32;;;;;;;21.95;15.15;;;11.30;70.70;;;;;;20911003;28;20057;-57
2024/01/30 00:57:33;;;;;;;22.48;14.95;;;11.20;70.90;;;;;;20926279;28;20064;-55
2024/01/30 01:07:35;;;;;;;24.42;15.00;;;11.20;70.80;;;;;;20924666;28;20037;-57
2024/01/30 01:17:36;;;;;;;18.58;14.57;;;11.00;71.00;;;;;;20925395;28;20037;-58
2024/01/30 01:27:40;;;;;;;24.48;14.30;;;10.90;71.30;;;;;;20924320;28;20120;-57
2024/01/30 01:37:41;;;;;;;23.05;14.93;;;10.80;71.30;;;;;;20921983;28;20037;-57
2024/01/30 01:47:43;;;;;;;23.10;14.23;;;10.80;71.20;;;;;;20922363;28;20138;-56
2024/01/30 01:57:44;;;;;;;22.83;14.57;;;10.80;71.20;;;;;;20920691;28;20037;-58
2024/01/30 02:07:45;;;;;;;17.50;11.18;;;10.70;71.70;;;;;;20920337;28;20492;-56
2024/01/30 02:17:46;;;;;;;15.15;9.70;;;10.50;71.70;;;;;;20919218;28;20029;-56
2024/01/30 02:27:47;;;;;;;16.48;9.68;;;10.10;71.50;;;;;;20918429;28;20035;-56
2024/01/30 02:37:48;;;;;;;14.30;9.75;;;9.80;71.90;;;;;;20919194;28;20108;-57
2024/01/30 02:47:49;;;;;;;14.23;8.48;;;9.60;72.40;;;;;;20917825;28;20132;-57
2024/01/30 02:57:52;;;;;;;14.45;8.52;;;9.50;72.80;;;;;;20917306;28;20044;-57
2024/01/30 03:07:53;;;;;;;13.75;8.73;;;9.20;73.10;;;;;;20915017;28;20109;-56
2024/01/30 03:17:54;;;;;;;19.33;10.18;;;9.10;73.40;;;;;;20915671;28;20437;-57
2024/01/30 03:27:55;;;;;;;13.98;8.95;;;8.90;73.80;;;;;;20914074;28;20108;-57
2024/01/30 03:37:55;;;;;;;17.02;9.80;;;8.80;74.20;;;;;;20913121;28;20071;-57
2024/01/30 03:47:56;;;;;;;16.23;9.45;;;8.80;74.50;;;;;;20913343;28;20060;-57
2024/01/30 03:57:58;;;;;;;13.70;8.43;;;8.70;74.80;;;;;;20913039;28;20068;-57
2024/01/30 04:07:59;;;;;;;15.85;9.57;;;8.70;74.70;;;;;;20910986;28;20056;-58
2024/01/30 04:18:00;;;;;;;13.95;9.07;;;8.50;74.60;;;;;;20912014;28;20037;-59
2024/01/30 04:28:01;;;;;;;12.40;8.70;;;8.40;74.90;;;;;;20920085;28;20415;-58
2024/01/30 04:38:02;;;;;;;20.27;8.85;;;8.30;75.10;;;;;;20929582;28;20080;-57
2024/01/30 04:48:03;;;;;;;17.45;11.30;;;8.20;75.30;;;;;;20927068;28;20056;-58
2024/01/30 04:58:06;;;;;;;16.55;10.15;;;8.20;75.40;;;;;;20925241;28;20119;-57
2024/01/30 05:08:10;;;;;;;15.90;9.55;;;8.00;75.50;;;;;;20924778;28;20115;-57
2024/01/30 05:18:13;;;;;;;16.17;10.30;;;7.90;75.60;;;;;;20924255;28;20116;-57
2024/01/30 05:28:16;;;;;;;25.60;15.13;;;7.90;75.70;;;;;;20924320;28;20078;-57
2024/01/30 05:38:19;;;;;;;18.50;12.40;;;7.80;76.00;;;;;;20921239;28;20115;-58
2024/01/30 05:48:22;;;;;;;21.50;12.35;;;7.80;76.10;;;;;;20922435;28;20061;-57
2024/01/30 05:58:24;;;;;;;19.00;11.73;;;7.90;75.90;;;;;;20922023;28;20045;-57
2024/01/30 06:08:27;;;;;;;19.15;12.13;;;7.80;75.50;;;;;;20920218;28;20080;-57
2024/01/30 06:18:30;;;;;;;21.35;12.45;;;7.70;75.60;;;;;;20919172;28;20048;-58
2024/01/30 06:28:31;;;;;;;18.20;11.52;;;7.70;75.60;;;;;;20918404;28;20083;-57
2024/01/30 06:38:32;;;;;;;19.30;12.32;;;7.60;75.60;;;;;;20917033;28;20033;-58
2024/01/30 06:48:35;;;;;;;21.25;13.60;;;7.50;76.00;;;;;;20916355;28;20053;-57
2024/01/30 06:58:36;;;;;;;18.33;12.90;;;7.50;76.50;;;;;;20915917;28;20053;-58
2024/01/30 07:08:40;;;;;;;21.40;14.25;;;7.60;76.50;;;;;;20916303;28;20021;-59
2024/01/30 07:18:41;;;;;;;26.90;13.77;;;7.60;76.30;;;;;;20913990;28;20037;-60
2024/01/30 07:28:44;;;;;;;20.13;13.45;;;7.50;76.40;;;;;;20914816;28;20025;-59
2024/01/30 07:38:47;;;;;;;28.27;13.65;;;7.50;76.50;;;;;;20913881;28;20061;-59
2024/01/30 07:48:53;;;;;;;25.60;14.50;;;7.50;76.30;;;;;;20912091;28;20124;-58
2024/01/30 07:58:54;;;;;;;24.23;14.98;;;7.50;76.20;;;;;;20911727;28;20065;-58
2024/01/30 08:08:59;;;;;;;27.13;14.75;;;7.40;76.20;;;;;;20911673;28;20029;-57
2024/01/30 08:19:01;;;;;;;29.17;15.57;;;7.60;76.30;;;;;;20911821;28;20045;-58
2024/01/30 08:29:04;;;;;;;22.67;16.20;;;7.70;76.40;;;;;;20910704;28;20091;-58
2024/01/30 08:39:07;;;;;;;25.90;16.63;;;7.80;76.20;;;;;;20909937;28;20045;-57
2024/01/30 08:49:10;;;;;;;26.98;16.52;;;8.00;75.90;;;;;;20909273;28;20053;-57
2024/01/30 08:59:13;;;;;;;25.95;18.55;;;8.30;75.30;;;;;;20910305;28;20350;-57
2024/01/30 09:09:17;;;;;;;28.33;16.58;;;8.40;74.70;;;;;;20910721;28;20501;-58
2024/01/30 09:19:20;;;;;;;33.15;16.80;;;8.70;74.40;;;;;;20923759;28;20033;-58
2024/01/30 09:29:22;;;;;;;35.28;19.92;;;8.80;74.00;;;;;;20924139;28;20100;-58
2024/01/30 09:39:27;;;;;;;31.43;21.13;;;9.20;73.70;;;;;;20922563;28;20056;-56
2024/01/30 09:49:29;;;;;;;40.65;24.40;;;9.50;73.40;;;;;;20921759;28;20056;-56
2024/01/30 09:59:30;;;;;;;41.00;24.35;;;9.70;73.30;;;;;;20922119;28;20465;-57
2024/01/30 10:09:34;;;;;;;25.88;15.68;;;10.10;72.60;;;;;;20920008;28;20025;-53
2024/01/30 10:19:41;;;;;;;31.45;21.67;;;10.60;74.50;;;;;;20920170;28;20037;-55
2024/01/30 10:29:43;;;;;;;29.35;20.52;;;11.70;69.60;;;;;;20919067;28;20040;-55
2024/01/30 10:39:46;;;;;;;29.27;19.15;;;12.60;68.20;;;;;;20917279;28;20033;-54
2024/01/30 10:49:47;;;;;;;31.02;19.45;;;13.20;64.70;;;;;;20918088;28;20510;-55
2024/01/30 10:59:53;;;;;;;35.35;22.27;;;12.70;64.40;;;;;;20917286;28;20490;-52
2024/01/30 11:10:04;;;;;;;34.23;21.77;;;13.20;63.60;;;;;;20915028;28;20025;-51
2024/01/30 11:20:09;;;;;;;32.10;21.20;;;13.70;63.20;;;;;;20915739;28;20040;-57
2024/01/30 11:30:11;;;;;;;31.67;22.05;;;13.30;63.20;;;;;;20915365;28;20040;-57
2024/01/30 11:40:13;;;;;;;29.15;20.70;;;14.10;62.70;;;;;;20914368;28;20172;-56
2024/01/30 11:50:14;;;;;;;30.45;21.10;;;14.10;60.70;;;;;;20912192;28;20095;-55
2024/01/30 12:00:17;;;;;;;34.15;22.17;;;13.60;61.20;;;;;;20911263;28;20037;-54
2024/01/30 12:10:18;;;;;;;29.35;21.15;;;13.30;62.30;;;;;;20910834;28;20057;-54
2024/01/30 12:20:21;;;;;;;25.73;20.00;;;13.70;64.20;;;;;;20910925;28;20040;-54
2024/01/30 12:30:22;;;;;;;31.67;21.63;;;13.70;61.90;;;;;;20911003;28;20036;-54
2024/01/30 12:40:26;;;;;;;32.50;21.30;;;13.70;60.90;;;;;;20910434;28;20037;-56
2024/01/30 12:50:27;;;;;;;30.15;22.67;;;13.60;62.00;;;;;;20920720;28;20102;-56
2024/01/30 13:00:30;;;;;;;30.23;20.98;;;13.50;61.80;;;;;;20925007;28;20037;-54
2024/01/30 13:10:33;;;;;;;33.90;25.25;;;13.70;62.50;;;;;;20924669;28;20021;-55
2024/01/30 13:20:36;;;;;;;33.95;24.33;;;14.10;60.50;;;;;;20924697;28;20347;-54
2024/01/30 13:30:39;;;;;;;34.78;24.35;;;13.90;60.90;;;;;;20918005;28;20036;-55
2024/01/30 13:40:43;;;;;;;32.42;26.58;;;13.90;61.00;;;;;;20920648;28;20068;-55
2024/01/30 13:50:46;;;;;;;37.88;25.77;;;14.00;60.50;;;;;;20922406;28;20494;-55
2024/01/30 14:00:49;;;;;;;34.05;23.85;;;14.00;60.60;;;;;;20920752;28;20184;-57
2024/01/30 14:10:52;;;;;;;34.42;24.30;;;14.10;60.20;;;;;;20921623;28;20029;-55
2024/01/30 14:20:54;;;;;;;35.35;25.45;;;13.90;60.50;;;;;;20920254;28;20045;-55
2024/01/30 14:30:57;;;;;;;35.33;26.30;;;14.00;60.40;;;;;;20919769;28;20025;-56
2024/01/30 14:40:59;;;;;;;36.08;27.77;;;14.00;60.70;;;;;;20918258;28;20115;-54
2024/01/30 14:51:01;;;;;;;34.53;27.25;;;14.00;60.90;;;;;;20918791;28;20048;-55
2024/01/30 15:01:04;;;;;;;37.00;25.75;;;14.10;61.10;;;;;;20916834;28;20037;-56
2024/01/30 15:11:06;;;;;;;35.42;24.77;;;14.10;61.10;;;;;;20914782;28;20067;-55
2024/01/30 15:21:09;;;;;;;30.13;21.98;;;14.00;61.20;;;;;;20914458;28;20095;-54
2024/01/30 15:31:10;;;;;;;36.63;25.25;;;14.10;61.50;;;;;;20913776;28;20033;-55
2024/01/30 15:41:13;;;;;;;42.45;27.15;;;14.10;61.60;;;;;;20914387;28;20098;-54
2024/01/30 15:51:14;;;;;;;45.40;28.58;;;14.00;61.90;;;;;;20912068;28;20049;-54
2024/01/30 16:01:19;;;;;;;;;;;14.00;62.10;;;;;;20911795;28;20041;-54
2024/01/30 16:11:21;;;;;;;38.42;26.20;;;14.00;62.30;;;;;;20912431;28;19916;-55
2024/01/30 16:21:24;;;;;;;39.70;26.38;;;14.00;62.70;;;;;;20911118;28;20045;-55
2024/01/30 16:31:25;;;;;;;39.47;26.42;;;13.90;62.90;;;;;;20910729;28;20035;-56
2024/01/30 16:41:28;;;;;;;33.67;26.45;;;13.90;62.80;;;;;;20910694;28;20119;-59
2024/01/30 16:51:29;;;;;;;34.65;24.42;;;13.80;63.60;;;;;;20906505;28;20048;-55
2024/01/30 17:01:31;;;;;;;32.85;22.45;;;13.80;63.40;;;;;;20908517;28;20045;-56
2024/01/30 17:11:32;;;;;;;35.90;23.55;;;13.70;63.90;;;;;;20907511;28;20100;-56
2024/01/30 17:21:36;;;;;;;31.13;20.85;;;13.70;64.10;;;;;;20908310;28;20037;-56
2024/01/30 17:31:39;;;;;;;29.77;21.88;;;13.80;64.60;;;;;;20909537;28;20039;-58
2024/01/30 17:41:42;;;;;;;47.72;29.48;;;13.80;65.00;;;;;;20921669;28;20037;-54
2024/01/30 17:51:45;;;;;;;51.65;32.42;;;13.70;64.90;;;;;;20921378;28;20514;-57
2024/01/30 18:01:48;;;;;;;42.33;26.50;;;13.50;65.30;;;;;;20920150;28;20045;-57
2024/01/30 18:11:50;;;;;;;36.40;23.17;;;13.40;65.70;;;;;;20920511;28;20047;-55
2024/01/30 18:21:53;;;;;;;52.88;33.85;;;13.30;66.00;;;;;;20918853;28;20179;-57
2024/01/30 18:31:56;;;;;;;53.40;28.75;;;13.30;66.50;;;;;;20917346;28;20039;-55
2024/01/30 18:41:59;;;;;;;38.58;24.10;;;13.20;67.00;;;;;;20915138;28;20109;-57
2024/01/30 18:52:04;;;;;;;36.35;23.65;;;13.70;69.40;;;;;;20914996;28;20115;-55
2024/01/30 19:02:06;;;;;;;39.13;23.03;;;13.50;68.80;;;;;;20917055;28;20091;-56
2024/01/30 19:12:08;;;;;;;51.78;24.98;;;13.20;68.10;;;;;;20909708;28;20079;-57
2024/01/30 19:22:11;;;;;;;36.75;22.60;;;13.00;68.30;;;;;;20913169;28;20429;-55
2024/01/30 19:32:14;;;;;;;34.72;22.38;;;12.90;68.40;;;;;;20914920;28;20036;-55
2024/01/30 19:42:18;;;;;;;44.70;27.00;;;12.70;68.50;;;;;;20914321;28;20080;-56
2024/01/30 19:52:19;;;;;;;46.00;28.23;;;12.70;68.90;;;;;;20911771;28;20072;-57
2024/01/30 20:02:24;;;;;;;47.55;29.88;;;12.60;69.30;;;;;;20912161;28;20524;-56
2024/01/30 20:12:25;;;;;;;41.75;25.77;;;12.50;69.70;;;;;;20911162;28;20025;-56
2024/01/30 20:22:26;;;;;;;42.20;24.17;;;12.40;70.10;;;;;;20910838;28;20493;-55
2024/01/30 20:32:29;;;;;;;46.97;24.05;;;12.20;70.50;;;;;;20911178;28;20036;-56
2024/01/30 20:42:32;;;;;;;69.82;49.17;;;12.20;70.70;;;;;;20909629;28;20041;-55
2024/01/30 20:52:35;;;;;;;58.00;35.22;;;12.00;71.10;;;;;;20908662;28;20494;-55
2024/01/30 21:02:37;;;;;;;42.88;29.55;;;11.70;71.70;;;;;;20907917;28;20144;-55
2024/01/30 21:12:38;;;;;;;51.45;29.23;;;11.60;72.00;;;;;;20919680;28;20036;-56
2024/01/30 21:22:39;;;;;;;45.38;27.80;;;11.40;72.40;;;;;;20922660;28;20060;-56
2024/01/30 21:32:40;;;;;;;44.33;27.33;;;11.30;72.80;;;;;;20923331;28;20021;-57
2024/01/30 21:42:41;;;;;;;42.83;26.95;;;11.10;73.00;;;;;;20921526;28;20255;-55
2024/01/30 21:52:42;;;;;;;41.88;27.08;;;10.80;73.20;;;;;;20920209;28;20092;-57
2024/01/30 22:02:45;;;;;;;43.67;24.48;;;10.70;73.50;;;;;;20919594;28;20044;-55
2024/01/30 22:12:46;;;;;;;37.42;25.27;;;10.50;73.70;;;;;;20920172;28;20423;-56
2024/01/30 22:22:47;;;;;;;37.58;25.13;;;10.30;73.90;;;;;;20916990;28;20075;-56
2024/01/30 22:32:48;;;;;;;42.25;25.80;;;10.20;74.20;;;;;;20917719;28;20033;-55
2024/01/30 22:42:49;;;;;;;37.97;23.90;;;10.00;74.40;;;;;;20919149;28;20043;-56
2024/01/30 22:52:51;;;;;;;40.15;23.40;;;9.90;74.50;;;;;;20917072;28;20053;-57
2024/01/30 23:02:56;;;;;;;33.42;21.67;;;9.70;74.90;;;;;;20918162;28;20041;-56
2024/01/30 23:12:57;;;;;;;36.50;25.70;;;9.70;75.20;;;;;;20917149;28;20029;-56
2024/01/30 23:22:58;;;;;;;35.47;24.05;;;9.60;75.30;;;;;;20916066;28;20454;-56
2024/01/30 23:32:59;;;;;;;38.92;25.17;;;9.50;75.40;;;;;;20913913;28;20017;-56
2024/01/30 23:43:01;;;;;;;34.22;22.98;;;9.40;75.50;;;;;;20914697;28;20368;-56
2024/01/30 23:53:03;;;;;;;35.97;23.40;;;9.30;75.50;;;;;;20912674;28;20111;-58
